sensor_id;sensor_type;location;lat;lon;timestamp;temperature;humidity
14555;DHT22;7364;50.870;4.722;2022-07-30T00:01:33;19.50;99.90
14555;DHT22;7364;50.870;4.722;2022-07-30T00:04:00;19.70;99.90
14555;DHT22;7364;50.870;4.722;2022-07-30T00:06:28;19.80;99.90
14555;DHT22;7364;50.870;4.722;2022-07-30T00:08:55;19.70;99.90
14555;DHT22;7364;50.870;4.722;2022-07-30T00:11:24;19.70;99.90
14555;DHT22;7364;50.870;4.722;2022-07-30T00:13:52;19.70;99.90
14555;DHT22;7364;50.870;4.722;2022-07-30T00:16:19;19.70;99.90
14555;DHT22;7364;50.870;4.722;2022-07-30T00:18:46;19.70;99.90
14555;DHT22;7364;50.870;4.722;2022-07-30T00:21:14;19.70;99.90
14555;DHT22;7364;50.870;4.722;2022-07-30T00:23:42;19.80;99.90
14555;DHT22;7364;50.870;4.722;2022-07-30T00:26:09;19.80;99.90
14555;DHT22;7364;50.870;4.722;2022-07-30T00:28:38;19.70;99.90
14555;DHT22;7364;50.870;4.722;2022-07-30T00:31:05;19.80;99.90
14555;DHT22;7364;50.870;4.722;2022-07-30T00:33:32;19.80;99.90
14555;DHT22;7364;50.870;4.722;2022-07-30T00:35:59;19.90;99.90
14555;DHT22;7364;50.870;4.722;2022-07-30T00:38:27;19.70;99.90
14555;DHT22;7364;50.870;4.722;2022-07-30T00:40:54;19.70;99.90
14555;DHT22;7364;50.870;4.722;2022-07-30T00:43:24;19.80;99.90
14555;DHT22;7364;50.870;4.722;2022-07-30T00:45:52;19.80;99.90
14555;DHT22;7364;50.870;4.722;2022-07-30T00:48:20;19.60;99.90
14555;DHT22;7364;50.870;4.722;2022-07-30T00:50:47;19.40;99.90
14555;DHT22;7364;50.870;4.722;2022-07-30T00:53:14;19.30;99.90
14555;DHT22;7364;50.870;4.722;2022-07-30T00:55:41;19.20;99.90
14555;DHT22;7364;50.870;4.722;2022-07-30T00:58:10;19.10;99.90
14555;DHT22;7364;50.870;4.722;2022-07-30T01:00:39;19.10;99.90
14555;DHT22;7364;50.870;4.722;2022-07-30T01:03:08;19.00;99.90
14555;DHT22;7364;50.870;4.722;2022-07-30T01:05:35;18.90;99.90
14555;DHT22;7364;50.870;4.722;2022-07-30T01:08:02;18.90;99.90
14555;DHT22;7364;50.870;4.722;2022-07-30T01:10:29;18.80;99.90
14555;DHT22;7364;50.870;4.722;2022-07-30T01:12:57;18.70;99.90
14555;DHT22;7364;50.870;4.722;2022-07-30T01:15:27;18.50;99.90
14555;DHT22;7364;50.870;4.722;2022-07-30T01:17:56;18.50;99.90
14555;DHT22;7364;50.870;4.722;2022-07-30T01:20:31;18.40;99.90
14555;DHT22;7364;50.870;4.722;2022-07-30T01:23:06;18.40;99.90
14555;DHT22;7364;50.870;4.722;2022-07-30T01:25:55;18.40;99.90
14555;DHT22;7364;50.870;4.722;2022-07-30T01:28:27;18.40;99.90
14555;DHT22;7364;50.870;4.722;2022-07-30T01:30:56;18.50;99.90
14555;DHT22;7364;50.870;4.722;2022-07-30T01:33:25;18.40;99.90
14555;DHT22;7364;50.870;4.722;2022-07-30T01:35:55;18.30;99.90
14555;DHT22;7364;50.870;4.722;2022-07-30T01:38:24;18.20;99.90
14555;DHT22;7364;50.870;4.722;2022-07-30T01:40:54;18.10;99.90
14555;DHT22;7364;50.870;4.722;2022-07-30T01:43:23;18.10;99.90
14555;DHT22;7364;50.870;4.722;2022-07-30T01:45:52;18.00;99.90
14555;DHT22;7364;50.870;4.722;2022-07-30T01:48:22;18.10;99.90
14555;DHT22;7364;50.870;4.722;2022-07-30T01:50:53;18.10;99.90
14555;DHT22;7364;50.870;4.722;2022-07-30T01:53:23;18.10;99.90
14555;DHT22;7364;50.870;4.722;2022-07-30T01:55:54;18.10;99.90
14555;DHT22;7364;50.870;4.722;2022-07-30T01:58:25;18.20;99.90
14555;DHT22;7364;50.870;4.722;2022-07-30T02:00:54;18.10;99.90
14555;DHT22;7364;50.870;4.722;2022-07-30T02:03:25;18.00;99.90
14555;DHT22;7364;50.870;4.722;2022-07-30T02:06:00;18.10;99.90
14555;DHT22;7364;50.870;4.722;2022-07-30T02:08:34;18.10;99.90
14555;DHT22;7364;50.870;4.722;2022-07-30T02:11:06;18.10;99.90
14555;DHT22;7364;50.870;4.722;2022-07-30T02:13:40;18.00;99.90
14555;DHT22;7364;50.870;4.722;2022-07-30T02:16:14;18.00;99.90
14555;DHT22;7364;50.870;4.722;2022-07-30T02:18:49;17.90;99.90
14555;DHT22;7364;50.870;4.722;2022-07-30T02:21:23;17.80;99.90
14555;DHT22;7364;50.870;4.722;2022-07-30T02:23:52;17.80;99.90
14555;DHT22;7364;50.870;4.722;2022-07-30T02:26:23;17.70;99.90
14555;DHT22;7364;50.870;4.722;2022-07-30T02:28:54;17.60;99.90
14555;DHT22;7364;50.870;4.722;2022-07-30T02:31:26;17.60;99.90
14555;DHT22;7364;50.870;4.722;2022-07-30T02:33:57;17.50;99.90
14555;DHT22;7364;50.870;4.722;2022-07-30T02:36:26;17.40;99.90
14555;DHT22;7364;50.870;4.722;2022-07-30T02:38:55;17.40;99.90
14555;DHT22;7364;50.870;4.722;2022-07-30T02:41:26;17.30;99.90
14555;DHT22;7364;50.870;4.722;2022-07-30T02:43:57;17.50;99.90
14555;DHT22;7364;50.870;4.722;2022-07-30T02:46:25;17.60;99.90
14555;DHT22;7364;50.870;4.722;2022-07-30T02:48:54;17.60;99.90
14555;DHT22;7364;50.870;4.722;2022-07-30T02:51:24;17.60;99.90
14555;DHT22;7364;50.870;4.722;2022-07-30T02:53:54;17.50;99.90
14555;DHT22;7364;50.870;4.722;2022-07-30T02:56:25;17.50;99.90
14555;DHT22;7364;50.870;4.722;2022-07-30T02:58:54;17.50;99.90
14555;DHT22;7364;50.870;4.722;2022-07-30T03:01:22;17.40;99.90
14555;DHT22;7364;50.870;4.722;2022-07-30T03:03:51;17.30;99.90
14555;DHT22;7364;50.870;4.722;2022-07-30T03:06:20;17.40;99.90
14555;DHT22;7364;50.870;4.722;2022-07-30T03:08:51;17.40;99.90
14555;DHT22;7364;50.870;4.722;2022-07-30T03:11:20;17.30;99.90
14555;DHT22;7364;50.870;4.722;2022-07-30T03:13:49;17.40;99.90
14555;DHT22;7364;50.870;4.722;2022-07-30T03:16:18;17.60;99.90
14555;DHT22;7364;50.870;4.722;2022-07-30T03:18:47;17.80;99.90
14555;DHT22;7364;50.870;4.722;2022-07-30T03:21:16;17.80;99.90
14555;DHT22;7364;50.870;4.722;2022-07-30T03:23:46;17.80;99.90
14555;DHT22;7364;50.870;4.722;2022-07-30T03:26:18;17.80;99.90
14555;DHT22;7364;50.870;4.722;2022-07-30T03:28:49;17.80;99.90
14555;DHT22;7364;50.870;4.722;2022-07-30T03:31:17;17.90;99.90
14555;DHT22;7364;50.870;4.722;2022-07-30T03:33:44;18.00;99.90
14555;DHT22;7364;50.870;4.722;2022-07-30T03:36:13;17.90;99.90
14555;DHT22;7364;50.870;4.722;2022-07-30T03:38:42;17.70;99.90
14555;DHT22;7364;50.870;4.722;2022-07-30T03:41:10;17.70;99.90
14555;DHT22;7364;50.870;4.722;2022-07-30T03:43:39;17.70;99.90
14555;DHT22;7364;50.870;4.722;2022-07-30T03:46:11;17.80;99.90
14555;DHT22;7364;50.870;4.722;2022-07-30T03:48:39;17.90;99.90
14555;DHT22;7364;50.870;4.722;2022-07-30T03:51:07;17.90;99.90
14555;DHT22;7364;50.870;4.722;2022-07-30T03:53:35;18.00;99.90
14555;DHT22;7364;50.870;4.722;2022-07-30T03:56:04;18.00;99.90
14555;DHT22;7364;50.870;4.722;2022-07-30T03:58:32;17.90;99.90
14555;DHT22;7364;50.870;4.722;2022-07-30T04:00:59;17.80;99.90
14555;DHT22;7364;50.870;4.722;2022-07-30T04:03:29;17.80;99.90
14555;DHT22;7364;50.870;4.722;2022-07-30T04:05:56;17.80;99.90
14555;DHT22;7364;50.870;4.722;2022-07-30T04:08:24;17.80;99.90
14555;DHT22;7364;50.870;4.722;2022-07-30T04:10:51;18.00;99.90
14555;DHT22;7364;50.870;4.722;2022-07-30T04:13:19;18.00;99.90
14555;DHT22;7364;50.870;4.722;2022-07-30T04:15:50;17.90;99.90
14555;DHT22;7364;50.870;4.722;2022-07-30T04:18:24;18.00;99.90
14555;DHT22;7364;50.870;4.722;2022-07-30T04:20:54;18.00;99.90
14555;DHT22;7364;50.870;4.722;2022-07-30T04:23:21;17.90;99.90
14555;DHT22;7364;50.870;4.722;2022-07-30T04:25:50;17.80;99.90
14555;DHT22;7364;50.870;4.722;2022-07-30T04:28:19;17.70;99.90
14555;DHT22;7364;50.870;4.722;2022-07-30T04:30:46;17.70;99.90
14555;DHT22;7364;50.870;4.722;2022-07-30T04:33:14;17.60;99.90
14555;DHT22;7364;50.870;4.722;2022-07-30T04:35:41;17.50;99.90
14555;DHT22;7364;50.870;4.722;2022-07-30T04:38:10;17.40;99.90
14555;DHT22;7364;50.870;4.722;2022-07-30T04:40:39;17.30;99.90
14555;DHT22;7364;50.870;4.722;2022-07-30T04:43:06;17.40;99.90
14555;DHT22;7364;50.870;4.722;2022-07-30T04:45:33;17.40;99.90
14555;DHT22;7364;50.870;4.722;2022-07-30T04:48:01;17.60;99.90
14555;DHT22;7364;50.870;4.722;2022-07-30T04:50:28;17.60;99.90
14555;DHT22;7364;50.870;4.722;2022-07-30T04:52:56;17.90;99.90
14555;DHT22;7364;50.870;4.722;2022-07-30T04:55:26;18.00;99.90
14555;DHT22;7364;50.870;4.722;2022-07-30T04:57:54;18.00;99.90
14555;DHT22;7364;50.870;4.722;2022-07-30T05:00:22;18.10;99.90
14555;DHT22;7364;50.870;4.722;2022-07-30T05:02:51;18.10;99.90
14555;DHT22;7364;50.870;4.722;2022-07-30T05:05:19;18.10;99.90
14555;DHT22;7364;50.870;4.722;2022-07-30T05:07:48;18.10;99.90
14555;DHT22;7364;50.870;4.722;2022-07-30T05:10:17;18.10;99.90
14555;DHT22;7364;50.870;4.722;2022-07-30T05:12:45;18.20;99.90
14555;DHT22;7364;50.870;4.722;2022-07-30T05:15:13;18.20;99.90
14555;DHT22;7364;50.870;4.722;2022-07-30T05:17:40;18.20;99.90
14555;DHT22;7364;50.870;4.722;2022-07-30T05:20:09;18.30;99.90
14555;DHT22;7364;50.870;4.722;2022-07-30T05:22:36;18.40;99.90
14555;DHT22;7364;50.870;4.722;2022-07-30T05:25:04;18.50;99.90
14555;DHT22;7364;50.870;4.722;2022-07-30T05:27:31;18.50;99.90
14555;DHT22;7364;50.870;4.722;2022-07-30T05:30:00;18.50;99.90
14555;DHT22;7364;50.870;4.722;2022-07-30T05:32:27;18.60;99.90
14555;DHT22;7364;50.870;4.722;2022-07-30T05:34:54;18.70;99.90
14555;DHT22;7364;50.870;4.722;2022-07-30T05:37:23;18.60;99.90
14555;DHT22;7364;50.870;4.722;2022-07-30T05:39:51;18.80;99.90
14555;DHT22;7364;50.870;4.722;2022-07-30T05:42:18;18.80;99.90
14555;DHT22;7364;50.870;4.722;2022-07-30T05:44:45;18.90;99.90
14555;DHT22;7364;50.870;4.722;2022-07-30T05:47:14;19.00;99.90
14555;DHT22;7364;50.870;4.722;2022-07-30T05:49:42;19.00;99.90
14555;DHT22;7364;50.870;4.722;2022-07-30T05:52:10;18.70;99.90
14555;DHT22;7364;50.870;4.722;2022-07-30T05:54:37;18.70;99.90
14555;DHT22;7364;50.870;4.722;2022-07-30T05:57:04;19.00;99.90
14555;DHT22;7364;50.870;4.722;2022-07-30T05:59:32;19.20;99.90
14555;DHT22;7364;50.870;4.722;2022-07-30T06:01:59;19.20;99.90
14555;DHT22;7364;50.870;4.722;2022-07-30T06:04:29;19.40;99.90
14555;DHT22;7364;50.870;4.722;2022-07-30T06:06:56;19.40;99.90
14555;DHT22;7364;50.870;4.722;2022-07-30T06:09:23;19.50;99.90
14555;DHT22;7364;50.870;4.722;2022-07-30T06:11:50;19.60;99.90
14555;DHT22;7364;50.870;4.722;2022-07-30T06:14:17;19.70;99.90
14555;DHT22;7364;50.870;4.722;2022-07-30T06:16:45;19.80;99.90
14555;DHT22;7364;50.870;4.722;2022-07-30T06:19:12;19.80;99.90
14555;DHT22;7364;50.870;4.722;2022-07-30T06:21:41;19.60;99.90
14555;DHT22;7364;50.870;4.722;2022-07-30T06:24:08;19.50;99.90
14555;DHT22;7364;50.870;4.722;2022-07-30T06:26:35;19.70;99.90
14555;DHT22;7364;50.870;4.722;2022-07-30T06:29:02;19.70;99.90
14555;DHT22;7364;50.870;4.722;2022-07-30T06:31:29;19.50;99.90
14555;DHT22;7364;50.870;4.722;2022-07-30T06:33:57;19.60;99.90
14555;DHT22;7364;50.870;4.722;2022-07-30T06:36:24;19.60;99.90
14555;DHT22;7364;50.870;4.722;2022-07-30T06:38:53;19.80;99.90
14555;DHT22;7364;50.870;4.722;2022-07-30T06:41:20;19.90;99.90
14555;DHT22;7364;50.870;4.722;2022-07-30T06:43:47;19.90;99.90
14555;DHT22;7364;50.870;4.722;2022-07-30T06:46:16;20.10;99.90
14555;DHT22;7364;50.870;4.722;2022-07-30T06:48:45;20.20;99.90
14555;DHT22;7364;50.870;4.722;2022-07-30T06:51:13;20.10;99.90
14555;DHT22;7364;50.870;4.722;2022-07-30T06:53:40;19.90;99.90
14555;DHT22;7364;50.870;4.722;2022-07-30T06:56:08;19.90;99.90
14555;DHT22;7364;50.870;4.722;2022-07-30T06:58:36;19.70;99.90
14555;DHT22;7364;50.870;4.722;2022-07-30T07:01:03;19.50;99.90
14555;DHT22;7364;50.870;4.722;2022-07-30T07:03:30;19.40;99.90
14555;DHT22;7364;50.870;4.722;2022-07-30T07:05:58;19.60;99.90
14555;DHT22;7364;50.870;4.722;2022-07-30T07:08:25;19.90;99.90
14555;DHT22;7364;50.870;4.722;2022-07-30T07:10:53;20.10;99.90
14555;DHT22;7364;50.870;4.722;2022-07-30T07:13:22;20.40;99.90
14555;DHT22;7364;50.870;4.722;2022-07-30T07:15:49;19.90;99.90
14555;DHT22;7364;50.870;4.722;2022-07-30T07:18:16;19.80;99.90
14555;DHT22;7364;50.870;4.722;2022-07-30T07:20:43;19.90;99.90
14555;DHT22;7364;50.870;4.722;2022-07-30T07:23:15;20.30;99.90
14555;DHT22;7364;50.870;4.722;2022-07-30T07:25:43;20.80;99.90
14555;DHT22;7364;50.870;4.722;2022-07-30T07:28:10;21.10;99.90
14555;DHT22;7364;50.870;4.722;2022-07-30T07:30:39;21.30;99.90
14555;DHT22;7364;50.870;4.722;2022-07-30T07:33:06;20.90;99.90
14555;DHT22;7364;50.870;4.722;2022-07-30T07:35:33;20.70;99.90
14555;DHT22;7364;50.870;4.722;2022-07-30T07:38:00;20.40;99.90
14555;DHT22;7364;50.870;4.722;2022-07-30T07:40:28;20.30;99.90
14555;DHT22;7364;50.870;4.722;2022-07-30T07:42:55;20.80;99.90
14555;DHT22;7364;50.870;4.722;2022-07-30T07:45:22;20.90;99.90
14555;DHT22;7364;50.870;4.722;2022-07-30T07:47:51;20.70;99.90
14555;DHT22;7364;50.870;4.722;2022-07-30T07:50:18;20.60;99.90
14555;DHT22;7364;50.870;4.722;2022-07-30T07:52:45;20.60;99.90
14555;DHT22;7364;50.870;4.722;2022-07-30T07:55:13;20.30;99.90
14555;DHT22;7364;50.870;4.722;2022-07-30T07:57:41;20.10;99.90
14555;DHT22;7364;50.870;4.722;2022-07-30T08:00:10;20.20;99.90
14555;DHT22;7364;50.870;4.722;2022-07-30T08:02:39;20.20;99.90
14555;DHT22;7364;50.870;4.722;2022-07-30T08:05:09;20.50;99.90
14555;DHT22;7364;50.870;4.722;2022-07-30T08:07:42;21.10;99.90
14555;DHT22;7364;50.870;4.722;2022-07-30T08:10:10;21.50;99.90
14555;DHT22;7364;50.870;4.722;2022-07-30T08:12:41;21.90;99.90
14555;DHT22;7364;50.870;4.722;2022-07-30T08:15:09;21.90;99.90
14555;DHT22;7364;50.870;4.722;2022-07-30T08:17:39;21.90;99.90
14555;DHT22;7364;50.870;4.722;2022-07-30T08:20:10;21.40;99.90
14555;DHT22;7364;50.870;4.722;2022-07-30T08:22:38;20.70;99.10
14555;DHT22;7364;50.870;4.722;2022-07-30T08:25:06;20.70;99.90
14555;DHT22;7364;50.870;4.722;2022-07-30T08:27:34;21.00;99.90
14555;DHT22;7364;50.870;4.722;2022-07-30T08:30:07;21.10;99.90
14555;DHT22;7364;50.870;4.722;2022-07-30T08:32:35;21.00;97.90
14555;DHT22;7364;50.870;4.722;2022-07-30T08:35:02;21.20;99.10
14555;DHT22;7364;50.870;4.722;2022-07-30T08:37:31;21.30;98.70
14555;DHT22;7364;50.870;4.722;2022-07-30T08:39:58;21.20;99.90
14555;DHT22;7364;50.870;4.722;2022-07-30T08:42:26;21.10;99.90
14555;DHT22;7364;50.870;4.722;2022-07-30T08:44:55;21.40;98.90
14555;DHT22;7364;50.870;4.722;2022-07-30T08:47:29;21.50;98.80
14555;DHT22;7364;50.870;4.722;2022-07-30T08:49:57;21.80;98.50
14555;DHT22;7364;50.870;4.722;2022-07-30T08:52:31;22.20;98.00
14555;DHT22;7364;50.870;4.722;2022-07-30T08:54:59;22.60;96.80
14555;DHT22;7364;50.870;4.722;2022-07-30T08:57:28;22.90;94.90
14555;DHT22;7364;50.870;4.722;2022-07-30T08:59:56;23.00;93.20
14555;DHT22;7364;50.870;4.722;2022-07-30T09:02:23;23.30;92.50
14555;DHT22;7364;50.870;4.722;2022-07-30T09:04:51;22.60;90.30
14555;DHT22;7364;50.870;4.722;2022-07-30T09:07:18;22.20;91.40
14555;DHT22;7364;50.870;4.722;2022-07-30T09:09:47;22.20;92.90
14555;DHT22;7364;50.870;4.722;2022-07-30T09:12:34;22.50;92.70
14555;DHT22;7364;50.870;4.722;2022-07-30T09:15:05;23.20;92.10
14555;DHT22;7364;50.870;4.722;2022-07-30T09:17:52;23.30;91.90
14555;DHT22;7364;50.870;4.722;2022-07-30T09:20:21;23.30;91.70
14555;DHT22;7364;50.870;4.722;2022-07-30T09:22:50;23.10;90.80
14555;DHT22;7364;50.870;4.722;2022-07-30T09:25:35;23.00;91.10
14555;DHT22;7364;50.870;4.722;2022-07-30T09:28:03;23.10;90.60
14555;DHT22;7364;50.870;4.722;2022-07-30T09:30:43;23.30;90.10
14555;DHT22;7364;50.870;4.722;2022-07-30T09:33:10;23.40;90.00
14555;DHT22;7364;50.870;4.722;2022-07-30T09:35:39;23.20;89.50
14555;DHT22;7364;50.870;4.722;2022-07-30T09:38:07;23.30;89.60
14555;DHT22;7364;50.870;4.722;2022-07-30T09:40:36;22.90;89.80
14555;DHT22;7364;50.870;4.722;2022-07-30T09:43:05;22.90;90.20
14555;DHT22;7364;50.870;4.722;2022-07-30T09:45:33;22.90;90.10
14555;DHT22;7364;50.870;4.722;2022-07-30T09:48:01;22.80;90.20
14555;DHT22;7364;50.870;4.722;2022-07-30T09:50:28;23.00;90.20
14555;DHT22;7364;50.870;4.722;2022-07-30T09:53:05;23.00;89.90
14555;DHT22;7364;50.870;4.722;2022-07-30T09:55:34;23.40;88.90
14555;DHT22;7364;50.870;4.722;2022-07-30T09:58:04;23.70;87.30
14555;DHT22;7364;50.870;4.722;2022-07-30T10:00:33;23.90;86.30
14555;DHT22;7364;50.870;4.722;2022-07-30T10:03:01;24.00;86.80
14555;DHT22;7364;50.870;4.722;2022-07-30T10:05:49;24.20;85.50
14555;DHT22;7364;50.870;4.722;2022-07-30T10:08:16;24.30;84.20
14555;DHT22;7364;50.870;4.722;2022-07-30T10:10:45;24.00;84.30
14555;DHT22;7364;50.870;4.722;2022-07-30T10:13:14;23.60;84.30
14555;DHT22;7364;50.870;4.722;2022-07-30T10:15:43;23.60;84.30
14555;DHT22;7364;50.870;4.722;2022-07-30T10:18:10;23.90;84.30
14555;DHT22;7364;50.870;4.722;2022-07-30T10:20:38;24.20;84.00
14555;DHT22;7364;50.870;4.722;2022-07-30T10:23:06;24.60;82.80
14555;DHT22;7364;50.870;4.722;2022-07-30T10:25:34;25.40;80.60
14555;DHT22;7364;50.870;4.722;2022-07-30T10:28:02;25.70;79.60
14555;DHT22;7364;50.870;4.722;2022-07-30T10:30:31;26.70;77.10
14555;DHT22;7364;50.870;4.722;2022-07-30T10:33:03;27.40;74.20
14555;DHT22;7364;50.870;4.722;2022-07-30T10:35:37;27.90;73.10
14555;DHT22;7364;50.870;4.722;2022-07-30T10:38:06;28.20;71.30
14555;DHT22;7364;50.870;4.722;2022-07-30T10:40:39;27.40;72.70
14555;DHT22;7364;50.870;4.722;2022-07-30T10:43:50;27.50;72.60
14555;DHT22;7364;50.870;4.722;2022-07-30T10:46:30;26.80;72.10
14555;DHT22;7364;50.870;4.722;2022-07-30T10:49:08;26.20;73.50
14555;DHT22;7364;50.870;4.722;2022-07-30T10:51:42;26.60;72.60
14555;DHT22;7364;50.870;4.722;2022-07-30T10:54:34;27.80;71.00
14555;DHT22;7364;50.870;4.722;2022-07-30T10:57:05;28.10;70.60
14555;DHT22;7364;50.870;4.722;2022-07-30T11:03:16;28.60;69.00
14555;DHT22;7364;50.870;4.722;2022-07-30T11:05:46;28.90;64.70
14555;DHT22;7364;50.870;4.722;2022-07-30T11:08:37;27.70;67.60
14555;DHT22;7364;50.870;4.722;2022-07-30T11:14:04;26.80;71.60
14555;DHT22;7364;50.870;4.722;2022-07-30T11:17:01;28.60;66.70
14555;DHT22;7364;50.870;4.722;2022-07-30T11:19:30;30.00;63.70
14555;DHT22;7364;50.870;4.722;2022-07-30T11:22:23;30.30;61.90
14555;DHT22;7364;50.870;4.722;2022-07-30T11:24:51;31.10;59.80
14555;DHT22;7364;50.870;4.722;2022-07-30T11:27:38;29.00;61.90
14555;DHT22;7364;50.870;4.722;2022-07-30T11:30:30;28.70;63.70
14555;DHT22;7364;50.870;4.722;2022-07-30T11:33:20;29.90;63.70
14555;DHT22;7364;50.870;4.722;2022-07-30T11:36:08;30.10;61.50
14555;DHT22;7364;50.870;4.722;2022-07-30T11:38:55;30.80;60.30
14555;DHT22;7364;50.870;4.722;2022-07-30T11:41:23;31.70;58.10
14555;DHT22;7364;50.870;4.722;2022-07-30T11:46:52;31.20;57.90
14555;DHT22;7364;50.870;4.722;2022-07-30T11:49:19;32.00;56.40
14555;DHT22;7364;50.870;4.722;2022-07-30T11:51:48;31.70;54.70
14555;DHT22;7364;50.870;4.722;2022-07-30T11:54:16;32.10;55.10
14555;DHT22;7364;50.870;4.722;2022-07-30T11:56:48;32.80;53.90
14555;DHT22;7364;50.870;4.722;2022-07-30T11:59:15;32.40;55.00
14555;DHT22;7364;50.870;4.722;2022-07-30T12:01:43;31.60;55.30
14555;DHT22;7364;50.870;4.722;2022-07-30T12:04:15;30.30;57.00
14555;DHT22;7364;50.870;4.722;2022-07-30T12:06:43;30.10;57.70
14555;DHT22;7364;50.870;4.722;2022-07-30T12:09:12;30.20;58.10
14555;DHT22;7364;50.870;4.722;2022-07-30T12:11:47;29.20;58.30
14555;DHT22;7364;50.870;4.722;2022-07-30T12:14:15;29.60;58.50
14555;DHT22;7364;50.870;4.722;2022-07-30T12:16:49;29.90;58.40
14555;DHT22;7364;50.870;4.722;2022-07-30T12:19:16;31.50;56.50
14555;DHT22;7364;50.870;4.722;2022-07-30T12:21:44;32.40;54.70
14555;DHT22;7364;50.870;4.722;2022-07-30T12:24:13;33.90;53.80
14555;DHT22;7364;50.870;4.722;2022-07-30T12:26:41;36.00;49.90
14555;DHT22;7364;50.870;4.722;2022-07-30T12:29:09;35.40;48.80
14555;DHT22;7364;50.870;4.722;2022-07-30T12:31:39;36.80;47.20
14555;DHT22;7364;50.870;4.722;2022-07-30T12:34:18;38.10;45.90
14555;DHT22;7364;50.870;4.722;2022-07-30T12:36:46;38.10;45.30
14555;DHT22;7364;50.870;4.722;2022-07-30T12:39:20;38.00;45.20
14555;DHT22;7364;50.870;4.722;2022-07-30T12:41:49;36.10;46.80
14555;DHT22;7364;50.870;4.722;2022-07-30T12:44:36;37.10;46.60
14555;DHT22;7364;50.870;4.722;2022-07-30T12:47:04;38.60;44.10
14555;DHT22;7364;50.870;4.722;2022-07-30T12:49:32;40.20;42.90
14555;DHT22;7364;50.870;4.722;2022-07-30T12:52:00;39.10;42.20
14555;DHT22;7364;50.870;4.722;2022-07-30T12:54:29;37.60;44.00
14555;DHT22;7364;50.870;4.722;2022-07-30T12:56:58;37.20;43.50
14555;DHT22;7364;50.870;4.722;2022-07-30T12:59:26;38.80;42.90
14555;DHT22;7364;50.870;4.722;2022-07-30T13:01:54;38.60;42.80
14555;DHT22;7364;50.870;4.722;2022-07-30T13:04:22;40.20;41.70
14555;DHT22;7364;50.870;4.722;2022-07-30T13:07:08;39.90;41.00
14555;DHT22;7364;50.870;4.722;2022-07-30T13:09:38;38.60;42.30
14555;DHT22;7364;50.870;4.722;2022-07-30T13:12:06;37.70;42.80
14555;DHT22;7364;50.870;4.722;2022-07-30T13:14:34;37.00;43.90
14555;DHT22;7364;50.870;4.722;2022-07-30T13:17:02;37.40;43.90
14555;DHT22;7364;50.870;4.722;2022-07-30T13:19:29;37.10;43.40
14555;DHT22;7364;50.870;4.722;2022-07-30T13:21:56;36.00;45.30
14555;DHT22;7364;50.870;4.722;2022-07-30T13:24:23;36.20;44.80
14555;DHT22;7364;50.870;4.722;2022-07-30T13:26:52;36.70;44.50
14555;DHT22;7364;50.870;4.722;2022-07-30T13:29:19;37.70;43.50
14555;DHT22;7364;50.870;4.722;2022-07-30T13:31:46;37.50;43.30
14555;DHT22;7364;50.870;4.722;2022-07-30T13:34:14;35.20;44.80
14555;DHT22;7364;50.870;4.722;2022-07-30T13:36:41;35.10;45.80
14555;DHT22;7364;50.870;4.722;2022-07-30T13:39:08;35.30;45.80
14555;DHT22;7364;50.870;4.722;2022-07-30T13:41:36;34.20;46.80
14555;DHT22;7364;50.870;4.722;2022-07-30T13:44:08;32.80;48.50
14555;DHT22;7364;50.870;4.722;2022-07-30T13:46:36;31.60;50.30
14555;DHT22;7364;50.870;4.722;2022-07-30T13:49:03;31.20;51.10
14555;DHT22;7364;50.870;4.722;2022-07-30T13:51:30;30.60;52.40
14555;DHT22;7364;50.870;4.722;2022-07-30T13:53:58;30.40;53.00
14555;DHT22;7364;50.870;4.722;2022-07-30T13:56:25;30.30;53.10
14555;DHT22;7364;50.870;4.722;2022-07-30T13:58:53;30.10;53.50
14555;DHT22;7364;50.870;4.722;2022-07-30T14:01:22;30.60;53.40
14555;DHT22;7364;50.870;4.722;2022-07-30T14:03:49;31.10;53.00
14555;DHT22;7364;50.870;4.722;2022-07-30T14:06:16;31.80;52.80
14555;DHT22;7364;50.870;4.722;2022-07-30T14:08:44;32.30;50.80
14555;DHT22;7364;50.870;4.722;2022-07-30T14:11:11;32.40;50.30
14555;DHT22;7364;50.870;4.722;2022-07-30T14:13:39;32.50;50.70
14555;DHT22;7364;50.870;4.722;2022-07-30T14:16:06;32.60;50.10
14555;DHT22;7364;50.870;4.722;2022-07-30T14:18:35;33.30;49.40
14555;DHT22;7364;50.870;4.722;2022-07-30T14:21:02;33.60;49.00
14555;DHT22;7364;50.870;4.722;2022-07-30T14:23:30;34.50;48.50
14555;DHT22;7364;50.870;4.722;2022-07-30T14:25:57;35.30;46.80
14555;DHT22;7364;50.870;4.722;2022-07-30T14:28:24;35.30;46.20
14555;DHT22;7364;50.870;4.722;2022-07-30T14:30:51;36.30;46.20
14555;DHT22;7364;50.870;4.722;2022-07-30T14:33:19;36.30;44.90
14555;DHT22;7364;50.870;4.722;2022-07-30T14:35:49;37.20;44.20
14555;DHT22;7364;50.870;4.722;2022-07-30T14:38:16;37.70;42.80
14555;DHT22;7364;50.870;4.722;2022-07-30T14:40:43;39.20;42.50
14555;DHT22;7364;50.870;4.722;2022-07-30T14:43:11;40.70;40.50
14555;DHT22;7364;50.870;4.722;2022-07-30T14:45:40;42.50;38.60
14555;DHT22;7364;50.870;4.722;2022-07-30T14:48:07;40.60;38.90
14555;DHT22;7364;50.870;4.722;2022-07-30T14:50:34;38.90;40.20
14555;DHT22;7364;50.870;4.722;2022-07-30T14:53:03;39.00;40.90
14555;DHT22;7364;50.870;4.722;2022-07-30T14:55:31;38.20;41.50
14555;DHT22;7364;50.870;4.722;2022-07-30T14:57:58;36.90;42.60
14555;DHT22;7364;50.870;4.722;2022-07-30T15:00:25;36.00;42.80
14555;DHT22;7364;50.870;4.722;2022-07-30T15:02:52;35.80;43.50
14555;DHT22;7364;50.870;4.722;2022-07-30T15:05:19;35.70;43.70
14555;DHT22;7364;50.870;4.722;2022-07-30T15:07:47;35.60;43.90
14555;DHT22;7364;50.870;4.722;2022-07-30T15:10:15;34.80;44.20
14555;DHT22;7364;50.870;4.722;2022-07-30T15:12:44;33.40;45.30
14555;DHT22;7364;50.870;4.722;2022-07-30T15:15:11;32.00;47.50
14555;DHT22;7364;50.870;4.722;2022-07-30T15:17:38;31.20;49.20
14555;DHT22;7364;50.870;4.722;2022-07-30T15:20:06;31.10;50.10
14555;DHT22;7364;50.870;4.722;2022-07-30T15:22:35;31.30;49.60
14555;DHT22;7364;50.870;4.722;2022-07-30T15:25:04;31.40;49.50
14555;DHT22;7364;50.870;4.722;2022-07-30T15:27:33;31.50;49.00
14555;DHT22;7364;50.870;4.722;2022-07-30T15:30:02;30.60;50.10
14555;DHT22;7364;50.870;4.722;2022-07-30T15:32:40;30.50;50.80
14555;DHT22;7364;50.870;4.722;2022-07-30T15:35:11;30.60;50.50
14555;DHT22;7364;50.870;4.722;2022-07-30T15:37:40;31.20;49.70
14555;DHT22;7364;50.870;4.722;2022-07-30T15:40:13;31.60;49.00
14555;DHT22;7364;50.870;4.722;2022-07-30T15:42:44;31.10;49.70
14555;DHT22;7364;50.870;4.722;2022-07-30T15:45:11;30.60;50.50
14555;DHT22;7364;50.870;4.722;2022-07-30T15:47:38;30.50;50.80
14555;DHT22;7364;50.870;4.722;2022-07-30T15:50:07;30.20;51.40
14555;DHT22;7364;50.870;4.722;2022-07-30T15:52:35;29.90;51.70
14555;DHT22;7364;50.870;4.722;2022-07-30T15:55:03;29.90;52.20
14555;DHT22;7364;50.870;4.722;2022-07-30T15:57:30;30.00;52.10
14555;DHT22;7364;50.870;4.722;2022-07-30T15:59:59;30.10;51.90
14555;DHT22;7364;50.870;4.722;2022-07-30T16:02:26;30.20;51.40
14555;DHT22;7364;50.870;4.722;2022-07-30T16:04:53;30.20;50.90
14555;DHT22;7364;50.870;4.722;2022-07-30T16:07:20;30.30;51.10
14555;DHT22;7364;50.870;4.722;2022-07-30T16:09:48;30.40;51.10